Time;durP1;ratioP1;P1;durP2;ratioP2;P2;SDS_P1;SDS_P2;PMS_P1;PMS_P2;Temp;Humidity;BMP_temperature;BMP_pressure;BME280_temperature;BME280_humidity;BME280_pressure;Samples;Min_cycle;Max_cycle;Signal;HPM_P1;HPM_P2
2023/03/16 00:01:20;;;;;;;7.55;4.88;;;;;;;11.03;45.57;98393.25;6137727;23;20003;-91
2023/03/16 00:03:48;;;;;;;7.57;5.35;;;;;;;10.94;45.71;98381.56;6161821;23;20335;-92
2023/03/16 00:06:13;;;;;;;9.48;5.43;;;;;;;10.90;45.50;98384.03;6187293;23;20005;-92
2023/03/16 00:08:42;;;;;;;9.82;5.32;;;;;;;10.84;45.67;98390.59;6162995;23;20016;-91
2023/03/16 00:11:08;;;;;;;14.02;5.90;;;;;;;10.90;45.42;98397.50;6162775;23;20001;-92
2023/03/16 00:13:35;;;;;;;7.70;5.00;;;;;;;10.94;45.92;98399.63;6187604;23;20001;-92
2023/03/16 00:16:06;;;;;;;8.32;4.88;;;;;;;10.85;45.14;98386.81;6163577;23;20005;-91
2023/03/16 00:18:37;;;;;;;9.73;5.38;;;;;;;10.91;44.98;98398.28;6164143;23;20436;-90
2023/03/16 00:21:04;;;;;;;8.52;5.07;;;;;;;10.79;45.37;98384.47;6163285;23;20325;-92
2023/03/16 00:23:34;;;;;;;9.50;4.80;;;;;;;10.84;45.04;98397.88;6138972;23;20059;-92
2023/03/16 00:26:02;;;;;;;7.63;5.10;;;;;;;10.74;45.63;98400.72;6163217;23;20107;-91
2023/03/16 00:28:34;;;;;;;8.43;4.55;;;;;;;10.74;45.20;98400.72;6163402;23;20054;-91
2023/03/16 00:31:02;;;;;;;7.65;4.55;;;;;;;10.69;45.29;98399.72;6164240;23;20035;-91
2023/03/16 00:33:28;;;;;;;7.93;4.88;;;;;;;10.72;45.30;98411.78;6138496;23;19997;-92
2023/03/16 00:36:01;;;;;;;9.90;4.90;;;;;;;10.72;45.03;98409.88;6162394;23;19998;-92
2023/03/16 00:38:26;;;;;;;8.88;4.85;;;;;;;10.43;45.66;98404.66;6163844;23;20359;-91
2023/03/16 00:40:52;;;;;;;6.45;4.60;;;;;;;10.51;45.66;98414.00;6162764;23;20012;-91
2023/03/16 00:43:18;;;;;;;8.52;4.97;;;;;;;10.49;45.64;98418.88;6160990;23;20444;-92
2023/03/16 00:45:45;;;;;;;7.63;4.75;;;;;;;10.57;46.02;98425.50;6163202;23;20063;-91
2023/03/16 00:48:11;;;;;;;7.05;4.22;;;;;;;10.56;45.83;98419.28;6187490;23;19997;-91
2023/03/16 00:50:38;;;;;;;8.13;5.10;;;;;;;10.54;46.29;98413.38;6163010;23;20543;-90
2023/03/16 00:53:04;;;;;;;7.80;4.97;;;;;;;10.53;46.05;98425.25;6163702;23;20107;-91
2023/03/16 00:55:31;;;;;;;8.07;4.68;;;;;;;10.42;46.25;98419.22;6163283;23;20067;-92
2023/03/16 00:58:03;;;;;;;6.65;4.68;;;;;;;10.48;46.38;98423.44;6162614;23;20448;-92
2023/03/16 01:00:32;;;;;;;8.70;4.45;;;;;;;10.41;46.37;98420.31;6164191;23;20007;-92
2023/03/16 01:02:58;;;;;;;8.05;4.40;;;;;;;10.39;46.23;98416.31;6187425;23;20076;-92
2023/03/16 01:05:24;;;;;;;7.85;4.43;;;;;;;10.36;46.51;98420.38;6162843;23;20012;-91
2023/03/16 01:07:51;;;;;;;6.20;3.97;;;;;;;10.44;46.53;98418.94;6164060;23;20424;-92
2023/03/16 01:10:16;;;;;;;6.78;4.28;;;;;;;10.41;46.65;98416.81;6163238;23;20071;-92
2023/03/16 01:12:44;;;;;;;10.63;5.18;;;;;;;10.25;46.94;98403.56;6138049;23;20016;-91
2023/03/16 01:15:12;;;;;;;8.52;4.90;;;;;;;10.36;46.41;98406.16;6164430;23;20063;-93
2023/03/16 01:17:38;;;;;;;8.93;4.93;;;;;;;10.31;46.90;98420.44;6163224;23;20028;-92
2023/03/16 01:20:10;;;;;;;9.45;4.85;;;;;;;10.20;46.90;98410.88;6137201;23;20009;-91
2023/03/16 01:22:36;;;;;;;10.20;5.05;;;;;;;10.07;47.58;98407.81;6139588;23;20001;-92
2023/03/16 01:25:01;;;;;;;8.57;5.22;;;;;;;10.04;47.90;98421.88;6163067;23;20398;-92
2023/03/16 01:27:27;;;;;;;13.32;5.35;;;;;;;9.87;48.41;98425.00;6137370;23;20016;-91
2023/03/16 01:29:53;;;;;;;9.05;5.22;;;;;;;10.06;47.75;98433.09;6161967;23;20347;-92
2023/03/16 01:32:19;;;;;;;8.82;5.20;;;;;;;10.09;48.27;98437.91;6138109;23;20080;-91
2023/03/16 01:34:45;;;;;;;7.40;5.05;;;;;;;10.00;48.81;98441.53;6138172;23;20551;-93
2023/03/16 01:37:11;;;;;;;10.15;5.75;;;;;;;9.91;48.74;98436.00;6161664;23;20035;-92
2023/03/16 01:39:38;;;;;;;8.30;5.65;;;;;;;9.93;48.90;98441.09;6162621;23;19997;-92
2023/03/16 01:42:04;;;;;;;9.35;6.18;;;;;;;9.95;49.60;98446.97;6138137;23;20080;-91
2023/03/16 01:44:49;;;;;;;11.70;6.47;;;;;;;9.84;49.78;98459.75;6162410;23;20005;-92
2023/03/16 01:47:15;;;;;;;11.30;6.47;;;;;;;9.91;50.46;98462.88;6137823;23;20005;-92
2023/03/16 01:49:46;;;;;;;10.07;6.32;;;;;;;9.78;50.98;98461.69;6163378;23;20063;-92
2023/03/16 01:52:19;;;;;;;10.15;6.20;;;;;;;9.78;50.91;98464.38;6164062;23;20016;-92
2023/03/16 01:55:27;;;;;;;10.23;5.93;;;;;;;9.76;51.39;98453.09;6162227;23;19997;-91
2023/03/16 01:57:53;;;;;;;9.20;6.00;;;;;;;9.75;51.10;98451.47;6091269;23;20011;-91
2023/03/16 02:00:23;;;;;;;9.52;6.15;;;;;;;9.59;51.73;98452.75;6098106;23;20002;-92
2023/03/16 02:03:02;;;;;;;10.75;6.60;;;;;;;9.74;51.78;98455.28;6089288;23;19995;-92
2023/03/16 02:05:42;;;;;;;13.52;7.75;;;;;;;9.61;52.58;98450.59;6074272;23;20066;-92
2023/03/16 02:08:07;;;;;;;12.40;6.63;;;;;;;9.51;53.96;98452.28;6097515;23;20014;-92
2023/03/16 02:10:34;;;;;;;13.63;7.50;;;;;;;9.41;54.37;98454.25;6076296;23;20009;-91
2023/03/16 02:13:00;;;;;;;11.75;6.97;;;;;;;9.56;54.33;98472.13;6074906;23;19999;-92
2023/03/16 02:15:26;;;;;;;11.27;7.45;;;;;;;9.68;54.59;98478.72;6050839;23;20022;-91
2023/03/16 02:17:52;;;;;;;11.25;7.50;;;;;;;9.63;55.11;98476.09;6090714;23;20037;-92
2023/03/16 02:20:45;;;;;;;12.38;7.55;;;;;;;9.58;55.74;98480.69;6099795;23;20496;-91
2023/03/16 02:23:19;;;;;;;10.18;7.28;;;;;;;9.49;56.07;98475.16;6075631;23;20057;-92
2023/03/16 02:26:11;;;;;;;11.98;7.95;;;;;;;9.57;56.51;98479.91;6100007;23;20026;-92
2023/03/16 02:28:53;;;;;;;15.05;8.13;;;;;;;9.56;56.70;98491.72;6136175;23;20068;-91
2023/03/16 02:31:21;;;;;;;13.13;8.07;;;;;;;9.34;57.64;98480.66;6164456;23;20011;-92
2023/03/16 02:33:46;;;;;;;10.90;7.47;;;;;;;9.35;57.34;98484.94;6163779;23;19993;-91
2023/03/16 02:36:14;;;;;;;12.10;8.40;;;;;;;9.36;58.79;98500.78;6163806;23;20028;-92
2023/03/16 02:38:40;;;;;;;13.60;7.97;;;;;;;9.25;59.78;98504.63;6163835;23;20000;-92
2023/03/16 02:41:19;;;;;;;11.20;7.90;;;;;;;9.24;59.78;98498.47;6164232;23;20033;-92
2023/03/16 02:44:32;;;;;;;12.00;8.38;;;;;;;9.17;61.72;98497.16;6164051;23;20009;-92
2023/03/16 02:47:01;;;;;;;14.05;7.68;;;;;;;9.14;60.37;98521.91;6099182;23;20357;-92
2023/03/16 02:49:33;;;;;;;15.65;7.85;;;;;;;9.10;61.14;98511.72;6098136;23;20015;-91
2023/03/16 02:51:59;;;;;;;13.48;7.38;;;;;;;9.00;63.16;98503.72;6075373;23;20006;-92
2023/03/16 02:54:25;;;;;;;10.45;6.68;;;;;;;9.09;62.56;98520.88;6051175;23;20017;-91
2023/03/16 02:56:50;;;;;;;11.10;7.80;;;;;;;9.03;61.21;98516.63;6074309;23;20361;-92
2023/03/16 02:59:18;;;;;;;9.75;6.47;;;;;;;9.13;59.98;98528.34;6095858;23;20093;-91
2023/03/16 03:01:44;;;;;;;14.02;6.95;;;;;;;9.05;60.21;98532.47;6074698;23;20006;-92
2023/03/16 03:04:13;;;;;;;9.07;5.93;;;;;;;9.07;60.62;98539.16;6098566;23;20010;-92
2023/03/16 03:06:39;;;;;;;8.70;5.85;;;;;;;9.07;59.47;98527.59;6097616;23;19994;-91
2023/03/16 03:09:04;;;;;;;10.30;6.47;;;;;;;8.95;60.86;98543.25;6098706;23;20006;-91
2023/03/16 03:11:30;;;;;;;8.73;5.85;;;;;;;8.92;59.62;98544.59;6073225;23;20010;-92
2023/03/16 03:13:57;;;;;;;9.45;5.38;;;;;;;8.87;59.68;98532.00;6099387;23;20073;-92
2023/03/16 03:16:25;;;;;;;7.90;5.05;;;;;;;8.94;59.00;98541.63;6098933;23;20134;-92
2023/03/16 03:18:51;;;;;;;9.85;5.30;;;;;;;8.81;60.51;98535.81;6136939;23;20012;-91
2023/03/16 03:21:17;;;;;;;7.40;5.38;;;;;;;8.61;60.47;98530.53;6188735;23;20449;-91
2023/03/16 03:23:45;;;;;;;8.77;5.32;;;;;;;8.69;59.41;98535.34;6139292;23;20037;-92
2023/03/16 03:26:13;;;;;;;9.93;5.55;;;;;;;8.63;59.42;98529.22;6163791;23;20087;-91
2023/03/16 03:28:39;;;;;;;7.65;5.25;;;;;;;8.71;59.60;98560.00;6171712;23;20005;-91
2023/03/16 03:31:06;;;;;;;10.32;5.55;;;;;;;8.63;61.00;98552.53;6145289;23;20005;-91
2023/03/16 03:33:35;;;;;;;7.05;5.45;;;;;;;8.57;60.98;98562.50;6176425;23;20008;-91
2023/03/16 03:36:01;;;;;;;8.18;5.18;;;;;;;8.60;59.97;98553.91;6164264;23;19997;-92
2023/03/16 03:38:27;;;;;;;7.45;5.00;;;;;;;8.61;59.46;98563.56;6137499;23;20005;-91
2023/03/16 03:40:58;;;;;;;6.88;4.68;;;;;;;8.61;60.81;98557.38;6162430;23;20351;-91
2023/03/16 03:43:25;;;;;;;8.77;5.35;;;;;;;8.63;59.38;98558.72;6164292;23;20454;-91
2023/03/16 03:46:01;;;;;;;7.80;4.85;;;;;;;8.75;59.42;98568.31;6138264;23;20443;-91
2023/03/16 03:48:27;;;;;;;6.43;4.32;;;;;;;8.87;58.10;98576.84;6162589;23;20044;-91
2023/03/16 03:50:53;;;;;;;7.20;4.90;;;;;;;8.85;59.07;98582.50;6165465;23;19996;-92
2023/03/16 03:53:19;;;;;;;7.93;5.32;;;;;;;8.70;57.72;98582.56;6165883;23;20125;-91
2023/03/16 03:55:48;;;;;;;9.50;4.85;;;;;;;8.72;57.39;98591.16;6164474;23;20064;-91
2023/03/16 03:58:14;;;;;;;9.20;4.68;;;;;;;8.62;57.75;98589.31;6189793;23;20020;-91
2023/03/16 04:00:40;;;;;;;7.57;4.70;;;;;;;8.58;57.76;98593.63;6163675;23;19997;-91
2023/03/16 04:03:05;;;;;;;7.50;4.47;;;;;;;8.47;57.93;98600.13;6158086;23;20072;-91
2023/03/16 04:05:31;;;;;;;6.82;4.28;;;;;;;8.52;57.91;98604.66;6163628;23;20009;-90
2023/03/16 04:08:01;;;;;;;8.75;5.10;;;;;;;8.48;57.97;98615.91;6165458;23;20005;-91
2023/03/16 04:10:27;;;;;;;6.35;4.22;;;;;;;8.24;58.38;98615.69;6139082;23;20420;-91
2023/03/16 04:12:56;;;;;;;5.70;3.95;;;;;;;8.10;58.85;98614.66;6162039;23;20005;-91
2023/03/16 04:15:24;;;;;;;6.15;4.50;;;;;;;8.28;57.92;98624.81;6163841;23;20028;-92
2023/03/16 04:17:51;;;;;;;7.00;4.22;;;;;;;8.22;58.03;98631.25;6188255;23;20008;-91
2023/03/16 04:20:18;;;;;;;6.30;4.03;;;;;;;8.15;57.99;98630.72;6164660;23;20007;-92
2023/03/16 04:22:46;;;;;;;5.80;3.97;;;;;;;8.15;57.76;98614.63;6165076;23;19997;-92
2023/03/16 04:25:14;;;;;;;7.65;4.43;;;;;;;8.10;58.00;98623.50;6163329;23;20033;-91
2023/03/16 04:27:42;;;;;;;5.65;3.83;;;;;;;8.02;58.55;98629.41;6139123;23;20009;-92
2023/03/16 04:30:10;;;;;;;6.78;4.50;;;;;;;7.88;58.58;98626.44;6163885;23;19997;-92
2023/03/16 04:32:37;;;;;;;10.35;4.72;;;;;;;7.91;58.90;98641.22;6162691;23;20001;-92
2023/03/16 04:35:07;;;;;;;6.72;4.45;;;;;;;7.85;58.93;98634.25;6162938;23;20005;-92
2023/03/16 04:37:34;;;;;;;7.28;4.68;;;;;;;7.86;58.81;98638.50;6139626;23;20080;-93
2023/03/16 04:40:09;;;;;;;8.65;4.72;;;;;;;7.85;58.80;98634.25;6189834;23;20004;-93
2023/03/16 04:42:35;;;;;;;6.30;4.15;;;;;;;7.81;59.07;98630.50;6165488;23;20097;-93
2023/03/16 04:45:01;;;;;;;7.45;4.10;;;;;;;7.67;59.55;98628.31;6163664;23;20001;-92
2023/03/16 04:47:32;;;;;;;8.88;4.85;;;;;;;7.70;60.01;98635.06;6163596;23;19997;-93
2023/03/16 04:49:59;;;;;;;8.18;5.85;;;;;;;7.63;60.35;98629.13;6140558;23;20451;-94
2023/03/16 04:52:28;;;;;;;6.75;5.43;;;;;;;7.51;60.92;98631.28;6140636;23;20070;-91
2023/03/16 04:54:55;;;;;;;11.45;5.63;;;;;;;7.60;61.09;98627.81;6139047;23;20005;-92
2023/03/16 04:57:22;;;;;;;7.65;5.25;;;;;;;7.64;61.14;98631.56;6163723;23;19985;-93
2023/03/16 04:59:49;;;;;;;6.75;4.88;;;;;;;7.65;61.45;98635.84;6160788;23;20452;-88
2023/03/16 05:02:16;;;;;;;9.70;5.63;;;;;;;7.61;62.16;98626.72;6160522;23;20009;-87
2023/03/16 05:04:43;;;;;;;6.80;4.88;;;;;;;7.65;60.68;98633.16;6160497;23;20080;-85
2023/03/16 05:07:09;;;;;;;8.80;4.47;;;;;;;7.80;60.33;98651.13;6160381;23;20059;-86
2023/03/16 05:09:35;;;;;;;10.52;4.82;;;;;;;7.76;60.56;98643.88;6136878;23;20001;-87
2023/03/16 05:12:00;;;;;;;7.70;4.80;;;;;;;7.77;61.71;98656.22;6161323;23;20004;-86
2023/03/16 05:14:26;;;;;;;8.02;4.63;;;;;;;7.99;59.96;98675.53;6160670;23;20007;-86
2023/03/16 05:16:52;;;;;;;9.98;5.00;;;;;;;7.89;60.35;98675.53;6135842;23;20124;-87
2023/03/16 05:19:17;;;;;;;7.53;4.55;;;;;;;7.94;59.77;98677.38;6161480;23;20008;-88
2023/03/16 05:21:44;;;;;;;9.25;5.25;;;;;;;7.85;60.10;98688.66;6137533;23;20009;-87
2023/03/16 05:24:11;;;;;;;8.57;5.22;;;;;;;7.74;61.13;98680.84;6186742;23;20109;-86
2023/03/16 05:26:37;;;;;;;8.38;4.93;;;;;;;7.75;60.60;98683.28;6173588;23;20021;-87
2023/03/16 05:29:03;;;;;;;12.50;5.28;;;;;;;7.51;61.89;98700.91;6163033;23;20008;-92
2023/03/16 05:31:34;;;;;;;10.95;5.40;;;;;;;7.52;61.51;98692.63;6163350;23;20036;-86
2023/03/16 05:34:01;;;;;;;11.35;5.32;;;;;;;7.47;63.06;98689.91;6139773;23;20001;-87
2023/03/16 05:36:28;;;;;;;7.43;4.32;;;;;;;7.60;61.06;98700.13;6164662;23;20001;-89
2023/03/16 05:38:54;;;;;;;7.95;4.38;;;;;;;7.53;61.80;98706.81;6138059;23;20009;-93
2023/03/16 05:41:23;;;;;;;6.13;4.15;;;;;;;7.39;62.03;98709.22;6137032;23;20001;-88
2023/03/16 05:44:01;;;;;;;5.25;3.80;;;;;;;7.40;61.97;98724.19;6164825;23;20444;-94
2023/03/16 05:46:27;;;;;;;7.35;4.60;;;;;;;7.35;60.94;98708.94;6136386;23;20009;-86
2023/03/16 05:48:53;;;;;;;5.47;3.85;;;;;;;7.40;61.83;98729.56;6137858;23;20005;-92
2023/03/16 05:51:21;;;;;;;7.47;4.18;;;;;;;7.39;61.65;98728.75;6140457;23;20055;-92
2023/03/16 05:53:47;;;;;;;8.65;4.47;;;;;;;7.37;63.32;98728.22;6140782;23;20001;-86
2023/03/16 05:56:13;;;;;;;7.70;3.85;;;;;;;7.34;62.88;98736.75;6165191;23;20005;-86
2023/03/16 05:58:41;;;;;;;5.20;3.90;;;;;;;7.44;62.31;98738.66;6169368;23;20024;-86
2023/03/16 06:01:08;;;;;;;6.10;3.70;;;;;;;7.47;61.75;98749.69;6138747;23;20008;-87
2023/03/16 06:03:37;;;;;;;5.93;3.10;;;;;;;7.48;61.75;98745.13;6186249;23;20016;-87
2023/03/16 06:06:03;;;;;;;7.95;4.13;;;;;;;7.48;62.12;98759.31;6139402;23;20005;-88
2023/03/16 06:08:29;;;;;;;7.97;4.55;;;;;;;7.42;63.75;98746.16;6139453;23;20036;-87
2023/03/16 06:10:59;;;;;;;6.05;3.35;;;;;;;7.48;62.87;98775.38;6164060;23;20004;-87
2023/03/16 06:13:34;;;;;;;6.07;3.72;;;;;;;7.27;63.60;98755.75;6139933;23;19985;-90
2023/03/16 06:16:01;;;;;;;7.22;4.18;;;;;;;7.38;63.03;98767.31;6139362;23;20151;-88
2023/03/16 06:18:29;;;;;;;9.32;4.75;;;;;;;7.26;63.89;98764.03;6139500;23;20347;-90
2023/03/16 06:20:56;;;;;;;5.88;4.18;;;;;;;7.29;63.81;98784.97;6161628;23;20001;-86
2023/03/16 06:23:22;;;;;;;5.70;4.43;;;;;;;7.21;65.40;98774.75;6164442;23;20009;-86
2023/03/16 06:25:48;;;;;;;10.98;5.25;;;;;;;7.31;65.37;98784.69;6139783;23;20005;-86
2023/03/16 06:28:14;;;;;;;9.75;5.15;;;;;;;7.20;64.10;98790.00;6165983;23;20083;-88
2023/03/16 06:30:40;;;;;;;8.88;4.15;;;;;;;7.24;62.73;98788.41;6165492;23;19997;-89
2023/03/16 06:33:19;;;;;;;4.88;3.30;;;;;;;7.27;63.48;98795.13;6164675;23;20005;-88
2023/03/16 06:35:48;;;;;;;6.53;3.42;;;;;;;7.02;65.22;98783.22;6167767;23;20005;-89
2023/03/16 06:38:16;;;;;;;6.45;4.05;;;;;;;7.10;65.65;98797.97;6143433;23;20005;-92
2023/03/16 06:40:41;;;;;;;5.15;3.30;;;;;;;6.87;65.13;98793.84;6144166;23;20495;-95
2023/03/16 06:43:08;;;;;;;7.88;3.90;;;;;;;6.94;65.63;98815.03;6165168;23;20005;-91
2023/03/16 06:45:36;;;;;;;7.43;3.60;;;;;;;6.88;64.26;98795.44;6179391;23;20012;-92
2023/03/16 06:48:03;;;;;;;6.35;3.47;;;;;;;6.82;64.59;98802.63;6148366;23;20013;-93
2023/03/16 06:50:29;;;;;;;7.20;3.83;;;;;;;6.95;65.02;98835.34;6145428;23;20009;-92
2023/03/16 06:52:59;;;;;;;6.35;3.20;;;;;;;6.85;63.11;98828.88;6173533;23;20063;-93
2023/03/16 06:55:28;;;;;;;6.55;3.28;;;;;;;6.97;63.00;98842.09;6174750;23;20079;-91
2023/03/16 06:57:53;;;;;;;4.47;3.00;;;;;;;6.96;62.91;98850.34;6165378;23;20009;-93
2023/03/16 07:00:22;;;;;;;4.15;2.60;;;;;;;6.93;63.28;98846.34;6168920;23;20023;-92
2023/03/16 07:02:51;;;;;;;4.65;3.08;;;;;;;6.94;63.76;98866.66;6173747;23;20005;-94
2023/03/16 07:05:36;;;;;;;6.47;3.05;;;;;;;6.63;64.48;98861.06;6145485;23;20076;-92
2023/03/16 07:08:13;;;;;;;6.05;3.85;;;;;;;6.78;63.44;98864.94;6120404;23;20002;-93
2023/03/16 07:10:41;;;;;;;4.95;3.10;;;;;;;6.74;63.00;98856.59;6061552;23;20007;-89
2023/03/16 07:13:07;;;;;;;6.85;3.10;;;;;;;6.75;63.33;98850.22;6058123;23;20067;-92
2023/03/16 07:15:35;;;;;;;7.65;3.30;;;;;;;6.80;63.61;98876.19;6057309;23;20078;-91
2023/03/16 07:18:06;;;;;;;6.13;3.10;;;;;;;6.68;63.56;98865.66;6051484;23;20013;-92
2023/03/16 07:20:34;;;;;;;6.47;4.20;;;;;;;6.54;65.19;98859.94;6049042;23;20007;-90
2023/03/16 07:23:00;;;;;;;4.32;3.13;;;;;;;6.62;67.47;98896.94;6064445;23;20019;-93
2023/03/16 07:25:25;;;;;;;6.88;3.72;;;;;;;6.56;66.58;98887.25;6069984;23;20036;-95
2023/03/16 07:27:51;;;;;;;5.13;3.55;;;;;;;6.68;65.47;98893.25;6056314;23;19999;-94
2023/03/16 07:30:24;;;;;;;4.65;2.75;;;;;;;6.59;63.63;98897.41;6028654;23;20011;-93
2023/03/16 07:32:52;;;;;;;5.13;2.80;;;;;;;6.52;65.93;98888.81;6056039;23;20003;-93
2023/03/16 07:35:20;;;;;;;7.40;4.07;;;;;;;6.70;67.48;98917.03;6095350;23;20016;-93
2023/03/16 07:37:55;;;;;;;7.75;3.90;;;;;;;6.77;65.17;98925.69;6115789;23;20013;-89
2023/03/16 07:40:22;;;;;;;6.57;3.97;;;;;;;6.54;67.34;98900.06;6108337;23;20546;-91
2023/03/16 07:42:49;;;;;;;6.30;3.55;;;;;;;6.74;68.57;98925.38;6145074;23;19990;-90
2023/03/16 07:45:22;;;;;;;7.93;3.75;;;;;;;6.96;65.67;98927.97;6121225;23;20143;-93
2023/03/16 07:50:32;;;;;;;8.60;5.50;;;;;;;6.68;68.06;98916.50;6161952;23;20021;-94
2023/03/16 07:53:01;;;;;;;7.13;4.35;;;;;;;6.72;69.36;98941.66;6115401;23;20002;-92
2023/03/16 07:55:27;;;;;;;5.45;3.10;;;;;;;6.60;65.65;98944.53;6118003;23;20025;-93
2023/03/16 07:57:55;;;;;;;4.65;3.15;;;;;;;6.64;67.29;98953.66;6112498;23;20002;-94
2023/03/16 08:00:22;;;;;;;5.15;2.88;;;;;;;6.38;67.82;98938.41;6111473;23;20013;-93
2023/03/16 08:02:52;;;;;;;4.55;2.80;;;;;;;6.33;66.07;98916.94;6115309;23;20433;-94
2023/03/16 08:05:18;;;;;;;7.55;2.95;;;;;;;6.48;66.40;98946.53;6137842;23;19997;-92
2023/03/16 08:07:44;;;;;;;3.90;2.42;;;;;;;6.37;67.13;98940.28;6113278;23;20560;-93
2023/03/16 08:10:11;;;;;;;4.47;2.60;;;;;;;6.42;65.81;98948.34;6115282;23;19993;-94
2023/03/16 08:12:40;;;;;;;5.00;3.00;;;;;;;6.45;67.09;98968.41;6138873;23;20013;-94
2023/03/16 08:15:06;;;;;;;5.78;3.17;;;;;;;6.37;67.75;98942.13;6140143;23;20037;-94
2023/03/16 08:17:33;;;;;;;6.63;3.55;;;;;;;6.47;66.90;98961.78;6115317;23;20001;-95
2023/03/16 08:19:58;;;;;;;7.70;3.80;;;;;;;6.40;66.25;98971.06;6117369;23;20001;-94
2023/03/16 08:22:24;;;;;;;5.93;3.67;;;;;;;6.25;66.78;98961.81;6089659;23;20057;-94
2023/03/16 08:24:50;;;;;;;6.53;3.13;;;;;;;6.20;67.01;98955.59;6142385;23;20065;-92
2023/03/16 08:27:18;;;;;;;7.70;3.03;;;;;;;6.28;67.98;98974.66;6113636;23;20001;-93
2023/03/16 08:29:44;;;;;;;5.22;3.00;;;;;;;6.13;70.08;98971.03;6112351;23;20423;-93
2023/03/16 08:32:31;;;;;;;4.97;3.05;;;;;;;6.24;68.65;98986.09;6115080;23;20008;-92
2023/03/16 08:34:57;;;;;;;4.95;2.38;;;;;;;6.24;68.60;98992.25;6144762;23;19997;-94
2023/03/16 08:37:23;;;;;;;4.93;2.75;;;;;;;6.22;67.43;98988.22;6119535;23;20002;-90
2023/03/16 08:40:20;;;;;;;8.30;3.85;;;;;;;6.18;68.66;98968.38;6139468;23;20005;-95
2023/03/16 08:42:49;;;;;;;7.40;3.85;;;;;;;6.40;68.73;98981.75;6142246;23;19998;-94
2023/03/16 08:45:18;;;;;;;12.18;6.72;;;;;;;6.31;68.45;98981.41;6090000;23;20420;-94
2023/03/16 08:47:44;;;;;;;8.00;3.20;;;;;;;6.44;66.54;98990.88;6092128;23;20046;-91
2023/03/16 08:50:14;;;;;;;12.35;7.03;;;;;;;6.40;68.96;98977.22;6118810;23;20102;-93
2023/03/16 08:52:40;;;;;;;21.48;13.82;;;;;;;6.59;69.39;99007.09;6138095;23;20061;-94
2023/03/16 08:55:06;;;;;;;5.45;2.42;;;;;;;6.55;66.34;98997.94;6112455;23;19998;-95
2023/03/16 08:58:07;;;;;;;5.25;3.20;;;;;;;6.47;67.75;99001.06;6112825;23;20012;-95
2023/03/16 09:00:34;;;;;;;5.85;2.75;;;;;;;6.25;68.12;98977.03;6092866;23;20093;-96
2023/03/16 09:02:59;;;;;;;3.53;2.28;;;;;;;6.21;69.12;98975.94;6143045;23;20013;-94
2023/03/16 09:05:25;;;;;;;4.90;2.80;;;;;;;6.38;69.38;98995.38;6141656;23;20001;-96
2023/03/16 09:07:52;;;;;;;3.53;2.40;;;;;;;6.33;66.52;98986.47;6118777;23;20136;-93
2023/03/16 09:10:21;;;;;;;4.20;2.65;;;;;;;6.24;67.87;98999.47;6116471;23;20016;-93
2023/03/16 09:12:49;;;;;;;4.47;2.50;;;;;;;6.39;69.55;99010.38;6144752;23;20133;-94
2023/03/16 09:15:15;;;;;;;5.82;2.97;;;;;;;6.40;68.24;98995.13;6142500;23;20005;-95
2023/03/16 09:17:44;;;;;;;5.40;2.60;;;;;;;6.22;69.58;98983.69;6116016;23;20008;-93
2023/03/16 09:20:10;;;;;;;4.03;2.53;;;;;;;6.53;71.32;99010.78;6143578;23;20002;-95
2023/03/16 09:22:47;;;;;;;4.57;2.30;;;;;;;6.63;65.92;98988.69;6128103;23;19997;-96
2023/03/16 09:25:23;;;;;;;4.32;2.60;;;;;;;6.42;67.91;98991.13;6146157;23;20009;-94
2023/03/16 09:27:56;;;;;;;3.00;2.30;;;;;;;6.57;68.00;99013.75;6118046;23;20455;-96
2023/03/16 09:30:24;;;;;;;2.42;2.05;;;;;;;6.57;66.26;98992.34;6114995;23;20013;-96
2023/03/16 09:33:02;;;;;;;;;;;;;;;;;;;;;
2023/03/16 09:39:05;;;;;;;3.88;1.65;;;;;;;6.33;65.58;99006.00;6088737;23;20008;-94
2023/03/16 09:41:49;;;;;;;5.47;2.50;;;;;;;6.52;66.39;99043.94;6114500;23;19997;-93
2023/03/16 09:44:30;;;;;;;4.35;3.05;;;;;;;6.54;69.80;99047.19;6111012;23;20012;-92
2023/03/16 09:47:00;;;;;;;4.20;1.90;;;;;;;6.33;65.48;99034.59;6165750;23;20147;-93
2023/03/16 09:49:47;;;;;;;6.93;3.97;;;;;;;6.42;68.10;99031.25;6141975;23;20162;-92
2023/03/16 09:52:37;;;;;;;2.80;1.98;;;;;;;6.60;65.10;99048.00;6118084;23;19997;-92
2023/03/16 09:55:24;;;;;;;4.80;1.80;;;;;;;6.56;65.54;99063.78;6141315;23;20010;-93
2023/03/16 09:57:50;;;;;;;3.83;2.42;;;;;;;6.61;68.24;99063.03;6168577;23;20082;-94
2023/03/16 10:00:32;;;;;;;9.65;5.72;;;;;;;6.38;67.85;99048.03;6125484;23;20106;-94
2023/03/16 10:03:23;;;;;;;4.70;2.97;;;;;;;6.63;66.66;99060.91;6142471;23;20005;-92
2023/03/16 10:05:51;;;;;;;6.10;2.60;;;;;;;6.56;66.93;99052.28;6141512;23;20001;-96
2023/03/16 10:08:44;;;;;;;3.58;2.30;;;;;;;6.35;66.60;99059.22;6092584;23;20005;-95
2023/03/16 10:11:28;;;;;;;3.22;1.90;;;;;;;6.26;66.75;99066.88;6132398;23;20108;-91
2023/03/16 10:14:01;;;;;;;3.83;2.35;;;;;;;6.00;66.66;99042.47;6167650;23;19996;-92
2023/03/16 10:16:50;;;;;;;4.80;2.55;;;;;;;6.24;67.74;99075.13;6142205;23;20015;-93
2023/03/16 10:19:40;;;;;;;2.53;1.60;;;;;;;6.23;66.56;99062.03;6113729;23;20005;-92
2023/03/16 10:22:22;;;;;;;3.08;2.05;;;;;;;6.12;66.12;99077.13;6114506;23;20052;-92
2023/03/16 10:25:00;;;;;;;4.10;1.93;;;;;;;6.12;67.92;99084.31;6091921;23;20021;-94
2023/03/16 10:27:47;;;;;;;4.30;2.78;;;;;;;6.13;67.83;99077.94;6164157;23;20236;-94
2023/03/16 10:30:29;;;;;;;10.90;6.30;;;;;;;6.20;69.33;99087.38;6144717;23;20053;-93
2023/03/16 10:32:56;;;;;;;7.30;4.57;;;;;;;6.32;67.07;99079.25;6163218;23;20348;-94
2023/03/16 10:35:34;;;;;;;3.83;2.72;;;;;;;6.31;66.41;99103.56;6089371;23;19993;-93
2023/03/16 10:38:03;;;;;;;8.57;4.85;;;;;;;6.10;65.31;99067.72;6139647;23;20005;-93
2023/03/16 10:40:37;;;;;;;4.68;3.05;;;;;;;6.19;68.62;99069.72;6119562;23;20002;-92
2023/03/16 10:43:08;;;;;;;5.90;3.05;;;;;;;6.39;64.81;99089.75;6148189;23;20002;-94
2023/03/16 10:45:34;;;;;;;5.20;3.10;;;;;;;6.17;65.61;99068.38;6125536;23;20013;-94
2023/03/16 10:48:14;;;;;;;4.63;3.38;;;;;;;6.28;67.14;99070.09;6101337;23;20005;-94
2023/03/16 10:50:55;;;;;;;3.47;2.03;;;;;;;6.15;67.83;99067.81;6121492;23;20017;-94
2023/03/16 10:53:30;;;;;;;4.38;2.03;;;;;;;6.22;65.93;99066.56;6132265;23;20057;-92
2023/03/16 10:56:08;;;;;;;3.17;2.22;;;;;;;6.38;65.74;99072.13;6120106;23;20073;-93
2023/03/16 10:58:34;;;;;;;4.20;2.65;;;;;;;6.33;65.94;99075.53;6145203;23;20025;-94
2023/03/16 11:01:02;;;;;;;4.22;2.30;;;;;;;6.22;66.00;99057.72;6117170;23;20084;-92
2023/03/16 11:03:38;;;;;;;3.38;2.28;;;;;;;6.41;64.90;99084.97;6116110;23;20005;-92
2023/03/16 11:06:05;;;;;;;3.58;2.00;;;;;;;6.41;65.08;99093.00;6112351;23;20010;-93
2023/03/16 11:08:36;;;;;;;5.00;2.40;;;;;;;6.35;66.31;99080.63;6112128;23;20080;-92
2023/03/16 11:11:10;;;;;;;4.25;2.85;;;;;;;6.45;64.55;99096.78;6114397;23;20016;-93
2023/03/16 11:13:37;;;;;;;4.93;2.60;;;;;;;6.44;65.33;99101.34;6115800;23;20070;-92
2023/03/16 11:16:20;;;;;;;4.93;2.75;;;;;;;6.25;66.48;99100.81;6116497;23;19986;-93
2023/03/16 11:19:38;;;;;;;6.60;2.83;;;;;;;6.28;65.47;99078.13;6120748;23;20001;-94
2023/03/16 11:22:11;;;;;;;4.03;2.50;;;;;;;6.38;64.99;99085.47;6109646;23;20005;-93
2023/03/16 11:24:55;;;;;;;4.05;2.50;;;;;;;6.42;67.57;99103.44;6119154;23;20002;-94
2023/03/16 11:28:07;;;;;;;3.75;2.70;;;;;;;6.31;67.25;99099.03;6163433;23;20092;-94
2023/03/16 11:30:54;;;;;;;4.28;2.50;;;;;;;6.40;66.86;99110.13;6159088;23;20022;-95
2023/03/16 11:33:26;;;;;;;6.43;2.88;;;;;;;6.32;64.70;99076.56;6166180;23;20004;-96
2023/03/16 11:35:54;;;;;;;;;;;;;;;6.54;64.00;99108.69;6123661;23;19985;-93
2023/03/16 11:38:35;;;;;;;7.28;2.30;;;;;;;6.47;64.36;99098.19;6122456;23;19893;-94
2023/03/16 11:41:32;;;;;;;4.00;2.67;;;;;;;6.37;65.42;99103.41;6125864;23;20044;-94
2023/03/16 11:44:11;;;;;;;3.03;2.42;;;;;;;6.30;65.66;99088.59;6140265;23;20014;-93
2023/03/16 11:46:43;;;;;;;3.42;2.38;;;;;;;6.14;65.38;99080.34;6136375;23;20026;-95
2023/03/16 11:49:31;;;;;;;3.90;1.92;;;;;;;6.15;66.34;99113.25;6167082;23;20001;-94
2023/03/16 11:52:22;;;;;;;4.57;3.05;;;;;;;6.23;65.21;99110.16;6163226;23;20021;-95
2023/03/16 11:55:20;;;;;;;4.10;2.53;;;;;;;6.03;66.69;99110.66;6141527;23;19997;-94
2023/03/16 11:58:37;;;;;;;8.55;4.47;;;;;;;6.10;66.27;99114.00;6135043;23;20001;-94
2023/03/16 12:01:27;;;;;;;2.70;2.30;;;;;;;6.23;64.93;99128.88;5971189;24;20056;-94
2023/03/16 12:04:08;;;;;;;7.03;3.47;;;;;;;6.20;64.49;99113.31;5969487;24;20019;-96
2023/03/16 12:06:37;;;;;;;4.88;3.15;;;;;;;6.35;64.16;99134.94;6086602;23;20009;-91